createdAt,value
2022-10-15T00:41:51.404Z,14.30
2022-10-15T00:44:30.063Z,14.30
2022-10-15T00:47:19.454Z,14.30
2022-10-15T00:50:08.831Z,14.30
2022-10-15T00:52:46.303Z,14.30
2022-10-15T00:55:19.686Z,14.30
2022-10-15T00:57:47.496Z,14.30
2022-10-15T01:00:17.501Z,14.30
2022-10-15T01:02:44.716Z,14.30
2022-10-15T01:05:12.131Z,14.30
2022-10-15T01:07:39.017Z,14.30
2022-10-15T01:10:06.351Z,14.30
2022-10-15T01:12:58.925Z,14.20
2022-10-15T01:15:41.176Z,14.20
2022-10-15T01:18:36.854Z,14.20
2022-10-15T01:24:15.946Z,14.20
2022-10-15T01:27:15.155Z,14.20
2022-10-15T01:30:04.023Z,14.20
2022-10-15T01:32:35.931Z,14.20
2022-10-15T01:35:31.640Z,14.20
2022-10-15T01:38:18.569Z,14.20
2022-10-15T01:40:45.356Z,14.20
2022-10-15T01:43:13.649Z,14.20
2022-10-15T01:45:46.161Z,14.20
2022-10-15T01:48:13.180Z,14.20
2022-10-15T01:50:47.821Z,14.20
2022-10-15T01:53:17.385Z,14.10
2022-10-15T01:55:44.253Z,14.10
2022-10-15T01:58:11.922Z,14.10
2022-10-15T02:00:39.910Z,14.10
2022-10-15T02:03:06.755Z,14.10
2022-10-15T02:05:43.044Z,14.10
2022-10-15T02:08:27.993Z,14.10
2022-10-15T02:11:09.022Z,14.10
2022-10-15T02:13:44.931Z,14.10
2022-10-15T02:16:17.830Z,14.10
2022-10-15T02:18:52.067Z,14.10
2022-10-15T02:21:31.412Z,14.10
2022-10-15T02:24:14.163Z,14.10
2022-10-15T02:26:41.018Z,14.10
2022-10-15T02:29:10.014Z,14.10
2022-10-15T02:31:36.819Z,14.10
2022-10-15T02:34:07.939Z,14.10
2022-10-15T02:36:34.726Z,14.10
2022-10-15T02:39:01.841Z,14.10
2022-10-15T02:41:29.106Z,14.10
2022-10-15T02:43:55.941Z,14.10
2022-10-15T02:46:22.710Z,14.10
2022-10-15T02:48:49.471Z,14.10
2022-10-15T02:51:16.238Z,14.10
2022-10-15T02:53:43.014Z,14.10
2022-10-15T02:56:09.798Z,14.10
2022-10-15T02:58:36.602Z,14.10
2022-10-15T03:01:03.663Z,14.10
2022-10-15T03:03:30.547Z,14.10
2022-10-15T03:05:57.406Z,14.10
2022-10-15T03:08:24.219Z,14.10
2022-10-15T03:10:51.043Z,14.10
2022-10-15T03:13:17.883Z,14.10
2022-10-15T03:15:44.679Z,14.10
2022-10-15T03:18:11.485Z,14.10
2022-10-15T03:20:38.272Z,14.10
2022-10-15T03:23:05.065Z,14.10
2022-10-15T03:25:31.915Z,14.10
2022-10-15T03:27:58.706Z,14.10
2022-10-15T03:30:25.555Z,14.10
2022-10-15T03:32:52.372Z,14.20
2022-10-15T03:35:19.203Z,14.20
2022-10-15T03:37:46.076Z,14.20
2022-10-15T03:40:14.525Z,14.20
2022-10-15T03:42:41.563Z,14.20
2022-10-15T03:45:09.066Z,14.20
2022-10-15T03:47:35.891Z,14.20
2022-10-15T03:50:02.790Z,14.20
2022-10-15T03:52:29.582Z,14.20
2022-10-15T03:54:56.426Z,14.20
2022-10-15T03:57:23.235Z,14.20
2022-10-15T03:59:50.101Z,14.20
2022-10-15T04:03:41.237Z,14.20
2022-10-15T04:06:08.282Z,14.20
2022-10-15T04:08:35.214Z,14.20
2022-10-15T04:11:02.104Z,14.20
2022-10-15T04:13:29.318Z,14.20
2022-10-15T04:15:56.178Z,14.20
2022-10-15T04:18:22.976Z,14.20
2022-10-15T04:20:49.853Z,14.20
2022-10-15T04:23:17.192Z,14.20
2022-10-15T04:25:44.032Z,14.30
2022-10-15T04:28:10.852Z,14.30
2022-10-15T04:30:37.680Z,14.30
2022-10-15T04:33:04.507Z,14.30
2022-10-15T04:35:31.972Z,14.30
2022-10-15T04:37:59.676Z,14.30
2022-10-15T04:40:26.707Z,14.30
2022-10-15T04:42:53.533Z,14.30
2022-10-15T04:45:20.424Z,14.30
2022-10-15T04:47:47.310Z,14.30
2022-10-15T04:50:14.152Z,14.40
2022-10-15T04:52:41.035Z,14.40
2022-10-15T04:55:08.095Z,14.40
2022-10-15T04:57:34.889Z,14.40
2022-10-15T05:00:01.704Z,14.40
2022-10-15T05:02:28.750Z,14.50
2022-10-15T05:04:55.651Z,14.50
2022-10-15T05:08:02.543Z,14.50
2022-10-15T05:10:29.597Z,14.50
2022-10-15T05:12:56.988Z,14.50
2022-10-15T05:15:26.056Z,14.50
2022-10-15T05:17:53.109Z,14.50
2022-10-15T05:20:19.950Z,14.50
2022-10-15T05:22:46.742Z,14.60
2022-10-15T05:25:13.681Z,14.50
2022-10-15T05:27:40.449Z,14.60
2022-10-15T05:30:07.642Z,14.60
2022-10-15T05:32:34.495Z,14.60
2022-10-15T05:35:01.358Z,14.60
2022-10-15T05:37:28.159Z,14.60
2022-10-15T05:39:54.985Z,14.60
2022-10-15T05:42:21.779Z,14.60
2022-10-15T05:44:48.613Z,14.60
2022-10-15T05:47:15.404Z,14.60
2022-10-15T05:51:42.619Z,14.60
2022-10-15T05:54:09.521Z,14.70
2022-10-15T05:56:36.317Z,14.60
2022-10-15T05:59:04.735Z,14.70
2022-10-15T06:01:31.499Z,14.70
2022-10-15T06:03:58.327Z,14.70
2022-10-15T06:06:26.432Z,14.60
2022-10-15T06:08:53.843Z,14.70
2022-10-15T06:11:20.697Z,14.70
2022-10-15T06:13:47.884Z,14.70
2022-10-15T06:16:19.322Z,14.70
2022-10-15T06:18:49.579Z,14.70
2022-10-15T06:21:16.384Z,14.70
2022-10-15T06:23:43.215Z,14.70
2022-10-15T06:26:10.251Z,14.80
2022-10-15T06:28:37.342Z,14.80
2022-10-15T06:31:04.306Z,14.80
2022-10-15T06:33:31.318Z,14.80
2022-10-15T06:36:06.172Z,14.90
2022-10-15T06:38:33.253Z,14.90
2022-10-15T06:41:00.202Z,14.90
2022-10-15T06:43:29.801Z,15.00
2022-10-15T06:46:05.645Z,14.90
2022-10-15T06:48:32.864Z,15.00
2022-10-15T06:52:47.917Z,15.00
2022-10-15T06:55:14.864Z,15.00
2022-10-15T06:57:41.825Z,15.10
2022-10-15T07:00:09.177Z,15.10
2022-10-15T07:02:36.542Z,15.10
2022-10-15T07:05:03.536Z,15.20
2022-10-15T07:07:30.479Z,15.20
2022-10-15T07:09:57.379Z,15.30
2022-10-15T07:12:24.453Z,15.30
2022-10-15T07:14:51.499Z,15.30
2022-10-15T07:17:18.360Z,15.30
2022-10-15T07:19:45.246Z,15.40
2022-10-15T07:22:12.065Z,15.40
2022-10-15T07:24:39.274Z,15.40
2022-10-15T07:27:17.158Z,15.40
2022-10-15T07:29:45.710Z,15.50
2022-10-15T07:32:12.525Z,15.50
2022-10-15T07:34:39.331Z,15.60
2022-10-15T07:37:06.130Z,15.60
2022-10-15T07:39:34.630Z,15.60
2022-10-15T07:42:04.572Z,15.70
2022-10-15T07:44:31.666Z,15.70
2022-10-15T07:46:58.516Z,15.70
2022-10-15T07:49:25.359Z,15.80
2022-10-15T07:51:52.213Z,15.80
2022-10-15T07:54:19.091Z,15.90
2022-10-15T07:56:45.878Z,15.90
2022-10-15T07:59:12.791Z,16.00
2022-10-15T08:01:39.654Z,16.00
2022-10-15T08:04:06.494Z,16.00
2022-10-15T08:06:33.398Z,16.10
2022-10-15T08:09:00.231Z,16.10
2022-10-15T08:11:27.100Z,16.20
2022-10-15T08:13:53.947Z,16.30
2022-10-15T08:16:20.805Z,16.30
2022-10-15T08:18:47.734Z,16.30
2022-10-15T08:21:14.632Z,16.30
2022-10-15T08:23:41.474Z,16.30
2022-10-15T08:26:08.431Z,16.40
2022-10-15T08:28:35.735Z,16.40
2022-10-15T08:31:05.473Z,16.40
2022-10-15T08:33:36.404Z,16.50
2022-10-15T08:36:05.594Z,16.50
2022-10-15T08:38:32.541Z,16.50
2022-10-15T08:41:00.353Z,16.60
2022-10-15T08:43:29.818Z,16.60
2022-10-15T08:45:59.920Z,16.70
2022-10-15T08:48:34.521Z,16.70
2022-10-15T08:51:06.519Z,16.80
2022-10-15T08:53:39.277Z,16.80
2022-10-15T08:56:12.477Z,16.80
2022-10-15T08:58:59.917Z,16.90
2022-10-15T09:01:48.202Z,16.90
2022-10-15T09:04:18.489Z,17.00
2022-10-15T09:06:45.431Z,17.00
2022-10-15T09:09:18.225Z,17.10
2022-10-15T09:11:59.688Z,17.10
2022-10-15T09:14:37.939Z,17.10
2022-10-15T09:17:11.187Z,17.20
2022-10-15T09:19:38.484Z,17.10
2022-10-15T09:22:06.838Z,17.10
2022-10-15T09:24:34.010Z,17.00
2022-10-15T09:27:03.126Z,17.00
2022-10-15T09:30:00.762Z,17.00
2022-10-15T09:32:38.034Z,17.00
2022-10-15T09:35:21.198Z,17.00
2022-10-15T09:37:52.434Z,17.10
2022-10-15T09:40:53.065Z,17.10
2022-10-15T09:43:27.426Z,17.30
2022-10-15T09:45:54.809Z,17.40
2022-10-15T09:48:21.708Z,17.50
2022-10-15T09:51:04.510Z,17.60
2022-10-15T09:53:52.777Z,17.70
2022-10-15T09:56:20.400Z,17.70
2022-10-15T09:58:55.905Z,17.80
2022-10-15T10:01:24.458Z,17.80
2022-10-15T10:04:14.595Z,17.90
2022-10-15T10:07:27.736Z,18.00
2022-10-15T10:09:57.994Z,18.10
2022-10-15T10:12:30.139Z,18.20
2022-10-15T10:15:02.841Z,18.30
2022-10-15T10:17:29.786Z,18.50
2022-10-15T10:20:16.927Z,18.50
2022-10-15T10:22:46.493Z,18.60
2022-10-15T10:25:27.859Z,18.50
2022-10-15T10:28:09.965Z,18.50
2022-10-15T10:30:51.006Z,18.40
2022-10-15T10:33:29.107Z,18.30
2022-10-15T10:35:56.109Z,18.20
2022-10-15T10:38:23.624Z,18.20
2022-10-15T10:40:55.486Z,18.00
2022-10-15T10:43:28.311Z,17.90
2022-10-15T10:45:55.314Z,17.90
2022-10-15T10:48:24.940Z,17.90
2022-10-15T10:51:09.354Z,18.00
2022-10-15T10:54:01.423Z,18.20
2022-10-15T10:56:40.603Z,18.30
2022-10-15T10:59:17.429Z,18.50
2022-10-15T11:01:44.276Z,18.60
2022-10-15T11:04:30.652Z,18.70
2022-10-15T11:07:11.428Z,18.80
2022-10-15T11:10:16.665Z,18.90
2022-10-15T11:12:58.601Z,19.00
2022-10-15T11:15:41.769Z,19.10
2022-10-15T11:18:25.448Z,19.10
2022-10-15T11:21:23.265Z,19.10
2022-10-15T11:24:12.565Z,19.00
2022-10-15T11:27:10.777Z,19.00
2022-10-15T11:30:09.377Z,19.00
2022-10-15T11:33:05.483Z,19.00
2022-10-15T11:35:58.444Z,19.10
2022-10-15T11:38:38.535Z,19.20
2022-10-15T11:41:14.344Z,19.30
2022-10-15T11:44:00.960Z,19.30
2022-10-15T11:46:30.326Z,19.30
2022-10-15T11:48:57.210Z,19.30
2022-10-15T11:51:24.058Z,19.20
2022-10-15T11:53:57.052Z,19.10
2022-10-15T11:56:28.612Z,19.00
2022-10-15T12:01:39.077Z,18.80
2022-10-15T12:04:23.573Z,18.90
2022-10-15T12:06:52.342Z,19.00
2022-10-15T12:09:39.855Z,19.10
2022-10-15T12:12:26.886Z,19.30
2022-10-15T12:15:12.321Z,19.40
2022-10-15T12:18:15.886Z,19.40
2022-10-15T12:20:42.805Z,19.50
2022-10-15T12:23:26.620Z,19.40
2022-10-15T12:25:53.474Z,19.50
2022-10-15T12:28:25.913Z,19.40
2022-10-15T12:31:02.636Z,19.40
2022-10-15T12:33:39.427Z,19.40
2022-10-15T12:36:30.755Z,19.40
2022-10-15T12:39:12.794Z,19.40
2022-10-15T12:41:48.570Z,19.50
2022-10-15T12:46:57.022Z,19.70
2022-10-15T12:49:26.969Z,19.80
2022-10-15T12:51:56.310Z,19.90
2022-10-15T12:54:35.061Z,19.80
2022-10-15T12:57:04.892Z,19.80
2022-10-15T12:59:54.632Z,19.70
2022-10-15T13:02:39.777Z,19.60
2022-10-15T13:05:07.646Z,19.60
2022-10-15T13:07:37.938Z,19.60
2022-10-15T13:10:05.238Z,19.60
2022-10-15T13:12:32.110Z,19.60
2022-10-15T13:15:07.218Z,19.50
2022-10-15T13:17:34.047Z,19.40
2022-10-15T13:20:33.287Z,19.30
2022-10-15T13:23:29.072Z,19.20
2022-10-15T13:26:16.325Z,19.10
2022-10-15T13:28:44.261Z,19.00
2022-10-15T13:31:32.612Z,19.00
2022-10-15T13:50:21.732Z,19.90
2022-10-15T13:53:16.398Z,20.00
2022-10-15T13:55:52.620Z,20.00
2022-10-15T13:58:29.839Z,19.90
2022-10-15T14:01:29.156Z,19.80
2022-10-15T14:04:55.557Z,19.60
2022-10-15T14:07:29.902Z,19.60
2022-10-15T14:09:59.878Z,19.60
2022-10-15T14:12:52.631Z,19.70
2022-10-15T14:15:50.465Z,19.70
2022-10-15T14:18:19.303Z,19.60
2022-10-15T14:20:48.078Z,19.60
2022-10-15T14:23:22.447Z,19.50
2022-10-15T14:25:57.459Z,19.40
2022-10-15T14:28:25.170Z,19.50
2022-10-15T14:30:52.331Z,19.50
2022-10-15T14:33:37.267Z,19.40
2022-10-15T14:36:13.258Z,19.50
2022-10-15T14:38:40.889Z,19.40
2022-10-15T14:41:32.206Z,19.40
2022-10-15T14:44:21.631Z,19.40
2022-10-15T14:46:51.476Z,19.50
2022-10-15T14:49:22.784Z,19.40
2022-10-15T14:51:55.849Z,19.40
2022-10-15T14:54:26.094Z,19.40
2022-10-15T14:56:53.181Z,19.30
2022-10-15T14:59:20.632Z,19.30
2022-10-15T15:02:03.427Z,19.30
2022-10-15T15:04:37.938Z,19.30
2022-10-15T15:07:16.566Z,19.30
2022-10-15T15:09:43.627Z,19.30
2022-10-15T15:12:27.843Z,19.20
2022-10-15T15:14:55.006Z,19.20
2022-10-15T15:17:23.365Z,19.10
2022-10-15T15:19:51.306Z,19.10
2022-10-15T15:22:27.706Z,19.00
2022-10-15T15:24:54.705Z,19.00
2022-10-15T15:27:39.409Z,18.90
2022-10-15T15:30:07.135Z,18.90
2022-10-15T15:32:33.941Z,18.80
2022-10-15T15:35:00.809Z,18.70
2022-10-15T15:37:30.171Z,18.70
2022-10-15T15:39:56.983Z,18.60
2022-10-15T15:42:24.526Z,18.60
2022-10-15T15:44:51.581Z,18.60
2022-10-15T15:47:18.734Z,18.60
2022-10-15T15:49:45.506Z,18.60
2022-10-15T15:52:18.738Z,18.50
2022-10-15T15:54:46.431Z,18.50
2022-10-15T15:57:13.573Z,18.50
2022-10-15T15:59:40.429Z,18.50
2022-10-15T16:02:07.458Z,18.50
2022-10-15T16:04:34.368Z,18.40
2022-10-15T16:07:01.455Z,18.40
2022-10-15T16:09:28.534Z,18.30
2022-10-15T16:11:57.576Z,18.30
2022-10-15T16:14:25.257Z,18.20
2022-10-15T16:16:53.222Z,18.20
2022-10-15T16:19:21.587Z,18.10
2022-10-15T16:21:51.521Z,18.10
2022-10-15T16:39:36.216Z,18.00
2022-10-15T16:42:10.768Z,17.70
